Strona główna
METAR-TAF:

METAR-TAF

Lotnisko :

Port lotniczy Poitiers-Biard

Poitiers, Francja

Szerokość geograficzna: 46-35N, Długość geograficzna: 000-19E, wysokość: 129 m

Aktualna obserwacja pogody

Raport powstał 39 minut temu, godzina 05:00 UTC
Wiatr 7 kt od północny wschód
Temperatura 3°C
Wilgotność 65%
Ciśnienie 1018 hPa
Widzialność 10 km lub więcej
Brak chmur poniżej 1500 m i brak chmur cumulonimbus

METAR: LFBI 010500Z AUTO 05007KT CAVOK 03/M03 Q1018

czas: 07:39 (05:39 UTC)


TAF: brakujący

Obserwacja i prognoza pogody dla ponad 4000 lotnisk (raport METAR i TAF).

Dostępne stacje oznaczono żółtymi i czerwonymi punktami na mapie.

Najedź kursorem aby zobaczyć nazwę stacji.

Kliknij aby zobaczyć obserwacje i prognozy pogody.

Aby zmienić mapę: kliknij na zielony przycisk z czarnym krzyżykiem, aby powiększyć; na zielony przycisk z myślnikiem, aby pomniejszyć; na zielone strzałki, aby przejść do map sąsiednich.


METAR-TAF: